Time;durP1;ratioP1;P1;durP2;ratioP2;P2;SDS_P1;SDS_P2;PMS_P1;PMS_P2;Temp;Humidity;BMP_temperature;BMP_pressure;BME280_temperature;BME280_humidity;BME280_pressure;Samples;Min_cycle;Max_cycle;Signal;HPM_P1;HPM_P2
2022/10/17 00:01:58;;;;;;;53.65;38.08;;;10.00;99.90;;;;;;5034368;28;20096;-69
2022/10/17 00:04:25;;;;;;;51.35;36.72;;;9.90;99.90;;;;;;5034518;28;20065;-68
2022/10/17 00:06:52;;;;;;;49.03;37.22;;;9.90;99.90;;;;;;5016596;28;20065;-68
2022/10/17 00:09:19;;;;;;;52.50;37.50;;;10.00;99.90;;;;;;5033603;28;20105;-69
2022/10/17 00:11:48;;;;;;;54.47;39.25;;;10.00;99.90;;;;;;5026832;28;20451;-69
2022/10/17 00:14:15;;;;;;;57.97;42.17;;;10.00;99.90;;;;;;5033423;28;20091;-68
2022/10/17 00:16:42;;;;;;;54.42;40.88;;;10.00;99.90;;;;;;5034676;28;20041;-68
2022/10/17 00:19:10;;;;;;;55.72;40.15;;;10.00;99.90;;;;;;5033518;28;20069;-70
2022/10/17 00:21:37;;;;;;;55.42;38.40;;;9.90;99.90;;;;;;5015596;28;20559;-69
2022/10/17 00:24:05;;;;;;;62.75;40.50;;;9.90;99.90;;;;;;5033617;28;20479;-69
2022/10/17 00:26:33;;;;;;;59.97;39.47;;;9.90;99.90;;;;;;5015853;28;20052;-70
2022/10/17 00:29:01;;;;;;;58.65;40.80;;;9.90;99.90;;;;;;5033797;28;20097;-69
2022/10/17 00:31:29;;;;;;;66.78;43.40;;;9.80;99.90;;;;;;5033369;28;20045;-69
2022/10/17 00:33:56;;;;;;;66.53;43.60;;;9.80;99.90;;;;;;5033713;28;20103;-68
2022/10/17 00:36:25;;;;;;;61.95;43.45;;;9.80;99.90;;;;;;5033582;28;20061;-69
2022/10/17 00:38:54;;;;;;;60.72;42.83;;;9.70;99.90;;;;;;5033149;28;20045;-69
2022/10/17 00:41:24;;;;;;;60.55;43.85;;;9.70;99.90;;;;;;5033851;28;20043;-69
2022/10/17 00:44:04;;;;;;;68.32;42.53;;;9.70;99.90;;;;;;5037088;28;20064;-70
2022/10/17 00:46:35;;;;;;;58.63;39.83;;;9.70;99.90;;;;;;5037869;28;20132;-68
2022/10/17 00:49:05;;;;;;;62.20;39.55;;;9.60;99.90;;;;;;5036661;28;20049;-68
2022/10/17 00:51:37;;;;;;;62.53;42.03;;;9.60;99.90;;;;;;5038770;28;20427;-68
2022/10/17 00:54:06;;;;;;;55.85;36.40;;;9.50;99.90;;;;;;5038756;28;20042;-70
2022/10/17 00:56:33;;;;;;;52.17;35.08;;;9.50;99.90;;;;;;5020334;28;20052;-69
2022/10/17 00:59:02;;;;;;;53.28;36.30;;;9.60;99.90;;;;;;5039095;28;20072;-69
2022/10/17 01:01:30;;;;;;;54.22;38.08;;;9.60;99.90;;;;;;5021583;28;20049;-69
2022/10/17 01:03:58;;;;;;;62.53;40.47;;;9.60;99.90;;;;;;5037906;28;20088;-69
2022/10/17 01:06:25;;;;;;;59.70;39.90;;;9.60;99.90;;;;;;5019873;28;20038;-68
2022/10/17 01:08:53;;;;;;;54.17;37.67;;;9.60;99.90;;;;;;5022277;28;20508;-69
2022/10/17 01:11:33;;;;;;;54.38;39.97;;;9.50;99.90;;;;;;5036934;28;20045;-69
2022/10/17 01:14:09;;;;;;;54.75;39.45;;;9.50;99.90;;;;;;5035336;28;20055;-68
2022/10/17 01:16:43;;;;;;;57.90;39.60;;;9.40;99.90;;;;;;5037014;28;20087;-69
2022/10/17 01:19:44;;;;;;;48.00;35.97;;;9.40;99.90;;;;;;5168263;27;20573;-69
2022/10/17 01:22:17;;;;;;;55.92;37.67;;;9.40;99.90;;;;;;5153410;27;20035;-68
2022/10/17 01:24:58;;;;;;;;;;;9.40;99.90;;;;;;5152844;27;20035;-69
2022/10/17 01:27:40;;;;;;;52.83;38.65;;;9.40;99.90;;;;;;5151495;27;19927;-69
2022/10/17 01:30:26;;;;;;;56.15;35.55;;;9.50;99.90;;;;;;5152031;27;20051;-71
2022/10/17 01:32:58;;;;;;;47.40;33.72;;;9.50;99.90;;;;;;5150900;27;20088;-72
2022/10/17 01:35:32;;;;;;;47.58;34.40;;;9.40;99.90;;;;;;5139014;27;20047;-72
2022/10/17 01:38:07;;;;;;;50.33;35.40;;;9.30;99.90;;;;;;5132132;27;20556;-72
2022/10/17 01:40:39;;;;;;;49.92;35.00;;;9.20;99.90;;;;;;5133878;27;20071;-72
2022/10/17 01:43:12;;;;;;;48.38;33.45;;;9.20;99.90;;;;;;5131281;28;20047;-72
2022/10/17 01:45:46;;;;;;;53.35;37.17;;;9.10;99.90;;;;;;5136670;27;20135;-72
2022/10/17 01:48:19;;;;;;;52.03;37.03;;;9.10;99.90;;;;;;5150986;27;20047;-72
2022/10/17 01:50:54;;;;;;;54.65;38.70;;;9.10;99.90;;;;;;5151070;27;20043;-72
2022/10/17 01:53:28;;;;;;;54.92;40.47;;;9.10;99.90;;;;;;5150958;27;20039;-72
2022/10/17 01:56:00;;;;;;;54.83;39.97;;;9.00;99.90;;;;;;5132049;27;20143;-72
2022/10/17 01:58:31;;;;;;;55.80;37.85;;;9.00;99.90;;;;;;5130121;28;20466;-72
2022/10/17 02:01:04;;;;;;;50.88;35.97;;;9.10;99.90;;;;;;5148085;27;20078;-72
2022/10/17 02:03:35;;;;;;;50.92;35.65;;;9.10;99.90;;;;;;5150522;27;20043;-72
2022/10/17 02:06:02;;;;;;;48.90;34.60;;;9.10;99.90;;;;;;5141217;27;20054;-73
2022/10/17 02:08:42;;;;;;;51.47;34.03;;;9.10;99.90;;;;;;5134976;27;20043;-72
2022/10/17 02:11:15;;;;;;;46.92;33.25;;;9.00;99.90;;;;;;5150876;27;20121;-72
2022/10/17 02:14:05;;;;;;;47.65;33.90;;;9.00;99.90;;;;;;5150907;27;20057;-72
2022/10/17 02:16:39;;;;;;;47.30;35.15;;;9.00;99.90;;;;;;5150510;27;20509;-71
2022/10/17 02:19:36;;;;;;;45.38;33.95;;;9.00;99.90;;;;;;5150048;27;20078;-71
2022/10/17 02:22:16;;;;;;;47.58;33.08;;;8.90;99.90;;;;;;5129649;27;20076;-72
2022/10/17 02:24:49;;;;;;;43.08;31.85;;;8.90;99.90;;;;;;5130875;27;20078;-72
2022/10/17 02:27:26;;;;;;;48.88;34.60;;;8.90;99.90;;;;;;5130366;27;20070;-73
2022/10/17 02:30:01;;;;;;;59.78;40.38;;;8.90;99.90;;;;;;5121940;27;20074;-72
2022/10/17 02:32:38;;;;;;;55.60;38.55;;;8.90;99.90;;;;;;5114802;28;20051;-71
2022/10/17 02:35:11;;;;;;;65.80;42.28;;;8.80;99.90;;;;;;5119818;27;20135;-72
2022/10/17 02:37:40;;;;;;;62.22;40.90;;;8.80;99.90;;;;;;5115017;28;20117;-73
2022/10/17 02:40:10;;;;;;;71.63;42.75;;;8.70;99.90;;;;;;5116494;28;20524;-72
2022/10/17 02:42:41;;;;;;;73.93;44.08;;;8.70;99.90;;;;;;5114997;28;20052;-72
2022/10/17 02:45:10;;;;;;;63.13;41.65;;;8.70;99.90;;;;;;5115012;28;20044;-72
2022/10/17 02:47:43;;;;;;;62.17;38.92;;;8.70;99.90;;;;;;5134899;27;20501;-72
2022/10/17 02:50:12;;;;;;;62.65;38.40;;;8.70;99.90;;;;;;5135907;27;20053;-73
2022/10/17 02:52:46;;;;;;;51.50;35.15;;;8.80;99.90;;;;;;5135334;27;20410;-72
2022/10/17 02:55:17;;;;;;;45.47;33.72;;;8.80;99.90;;;;;;5135481;27;20542;-72
2022/10/17 02:57:49;;;;;;;43.42;30.58;;;8.90;99.90;;;;;;5134742;27;20047;-72
2022/10/17 03:00:18;;;;;;;44.55;31.42;;;9.00;99.90;;;;;;5135595;27;20047;-72
2022/10/17 03:02:48;;;;;;;49.38;33.53;;;9.00;99.90;;;;;;5135574;27;20046;-72
2022/10/17 03:05:19;;;;;;;48.22;32.92;;;9.10;99.90;;;;;;5135963;27;20057;-72
2022/10/17 03:07:47;;;;;;;50.92;30.55;;;9.00;99.90;;;;;;5136379;27;20043;-73
2022/10/17 03:10:14;;;;;;;44.05;31.15;;;9.00;99.90;;;;;;5137240;27;20035;-73
2022/10/17 03:12:42;;;;;;;50.65;30.50;;;9.00;99.90;;;;;;5121865;27;20486;-72
2022/10/17 03:15:11;;;;;;;50.35;30.67;;;8.90;99.90;;;;;;5129534;27;20047;-72
2022/10/17 03:17:39;;;;;;;50.92;30.70;;;8.90;99.90;;;;;;5137377;27;20047;-72
2022/10/17 03:20:09;;;;;;;51.03;31.95;;;8.90;99.90;;;;;;5131366;27;20096;-71
2022/10/17 03:22:38;;;;;;;47.50;32.67;;;8.80;99.90;;;;;;5114997;28;20525;-72
2022/10/17 03:25:07;;;;;;;47.40;31.45;;;8.80;99.90;;;;;;5127384;27;20490;-71
2022/10/17 03:27:36;;;;;;;49.90;32.42;;;8.70;99.90;;;;;;5137196;27;20078;-72
2022/10/17 03:30:04;;;;;;;47.25;33.33;;;8.70;99.90;;;;;;5141795;27;20642;-72
2022/10/17 03:32:33;;;;;;;50.90;34.50;;;8.60;99.90;;;;;;5150475;27;20064;-72
2022/10/17 03:35:01;;;;;;;48.63;33.55;;;8.50;99.90;;;;;;5152341;27;20059;-71
2022/10/17 03:37:28;;;;;;;46.67;33.60;;;8.50;99.90;;;;;;5151869;27;20115;-72
2022/10/17 03:39:57;;;;;;;48.80;33.17;;;8.50;99.90;;;;;;5145681;27;20043;-71
2022/10/17 03:42:25;;;;;;;43.20;30.42;;;8.40;99.90;;;;;;5142866;27;20455;-71
2022/10/17 03:44:53;;;;;;;47.83;31.70;;;8.40;99.90;;;;;;5155212;27;20049;-72
2022/10/17 03:47:20;;;;;;;46.95;32.92;;;8.40;99.90;;;;;;5136356;27;20155;-72
2022/10/17 03:49:47;;;;;;;42.08;32.17;;;8.40;99.90;;;;;;5134589;27;20071;-72
2022/10/17 03:52:15;;;;;;;45.70;32.17;;;8.40;99.90;;;;;;5124248;27;20086;-72
2022/10/17 03:54:43;;;;;;;50.00;33.20;;;8.50;99.90;;;;;;5134023;27;20043;-71
2022/10/17 03:57:12;;;;;;;44.42;33.47;;;8.50;99.90;;;;;;5135626;27;20054;-71
2022/10/17 03:59:40;;;;;;;48.85;32.78;;;8.40;99.90;;;;;;5134117;27;20071;-71
2022/10/17 04:02:13;;;;;;;47.30;32.35;;;8.40;99.90;;;;;;5134169;27;20050;-72
2022/10/17 04:04:41;;;;;;;52.03;33.75;;;8.40;99.90;;;;;;5126014;27;20047;-72
2022/10/17 04:07:08;;;;;;;50.88;33.38;;;8.40;99.90;;;;;;5114107;28;20044;-73
2022/10/17 04:09:39;;;;;;;51.67;34.15;;;8.30;99.90;;;;;;5126823;27;20035;-71
2022/10/17 04:12:15;;;;;;;50.78;36.13;;;8.30;99.90;;;;;;5133776;27;20043;-73
2022/10/17 04:14:43;;;;;;;54.05;36.55;;;8.30;99.90;;;;;;5129737;27;20042;-72
2022/10/17 04:17:10;;;;;;;55.35;35.38;;;8.30;99.90;;;;;;5134277;27;20039;-74
2022/10/17 04:19:39;;;;;;;58.58;38.70;;;8.30;99.90;;;;;;5120148;27;20445;-71
2022/10/17 04:22:07;;;;;;;51.05;36.25;;;8.20;99.90;;;;;;5134225;27;20039;-72
2022/10/17 04:24:37;;;;;;;49.97;34.20;;;8.20;99.90;;;;;;5133600;27;20080;-74
2022/10/17 04:27:08;;;;;;;53.78;32.42;;;8.20;99.90;;;;;;5134376;27;20441;-71
2022/10/17 04:29:42;;;;;;;48.90;32.03;;;8.20;99.90;;;;;;5134945;27;20055;-74
2022/10/17 04:32:17;;;;;;;45.92;31.13;;;8.20;99.90;;;;;;5135699;27;20115;-72
2022/10/17 04:34:49;;;;;;;48.13;32.00;;;8.20;99.90;;;;;;5130203;27;20045;-73
2022/10/17 04:37:18;;;;;;;43.13;31.05;;;8.20;99.90;;;;;;5115460;28;20070;-71
2022/10/17 04:39:47;;;;;;;47.63;31.17;;;8.20;99.90;;;;;;5113853;28;20035;-73
2022/10/17 04:42:15;;;;;;;46.10;29.73;;;8.20;99.90;;;;;;5114689;28;20127;-72
2022/10/17 04:44:44;;;;;;;43.03;29.63;;;8.20;99.90;;;;;;5113064;28;20127;-73
2022/10/17 04:47:14;;;;;;;50.80;32.05;;;8.20;99.90;;;;;;5130596;27;20047;-72
2022/10/17 04:49:42;;;;;;;45.08;30.65;;;8.20;99.90;;;;;;5133303;27;20130;-72
2022/10/17 04:52:11;;;;;;;49.00;31.98;;;8.10;99.90;;;;;;5132826;27;20047;-72
2022/10/17 04:54:44;;;;;;;54.00;32.60;;;8.10;99.90;;;;;;5133040;27;20142;-72
2022/10/17 04:57:13;;;;;;;50.58;34.40;;;8.10;99.90;;;;;;5133638;27;20405;-72
2022/10/17 04:59:45;;;;;;;53.95;35.40;;;8.10;99.90;;;;;;5133184;27;20100;-73
2022/10/17 05:02:26;;;;;;;50.00;36.00;;;8.10;99.90;;;;;;5133509;27;20051;-72
2022/10/17 05:04:54;;;;;;;57.38;36.78;;;8.00;99.90;;;;;;5125299;27;20048;-72
2022/10/17 05:07:22;;;;;;;51.58;35.88;;;8.10;99.90;;;;;;5112921;28;20054;-72
2022/10/17 05:10:11;;;;;;;48.08;33.97;;;8.00;99.90;;;;;;5130196;27;20050;-71
2022/10/17 05:12:41;;;;;;;56.08;35.65;;;8.10;99.90;;;;;;5132496;27;20097;-73
2022/10/17 05:15:11;;;;;;;56.17;35.15;;;8.20;99.90;;;;;;5129755;27;20110;-72
2022/10/17 05:17:39;;;;;;;59.58;37.40;;;8.20;99.90;;;;;;5126237;28;20049;-70
2022/10/17 05:20:08;;;;;;;58.58;37.53;;;8.20;99.90;;;;;;5134563;28;20047;-69
2022/10/17 05:22:37;;;;;;;59.97;39.65;;;8.20;99.90;;;;;;5133433;28;20448;-69
2022/10/17 05:25:06;;;;;;;68.70;42.30;;;8.20;99.90;;;;;;5129004;28;20040;-71
2022/10/17 05:27:34;;;;;;;73.65;44.55;;;8.30;99.90;;;;;;5132758;28;20117;-69
2022/10/17 05:30:02;;;;;;;86.18;47.58;;;8.20;99.90;;;;;;5132542;28;20095;-70
2022/10/17 05:32:35;;;;;;;82.57;44.10;;;8.20;99.90;;;;;;5133344;28;20055;-70
2022/10/17 05:35:03;;;;;;;75.28;44.30;;;8.20;99.90;;;;;;5128056;28;20051;-70
2022/10/17 05:37:31;;;;;;;59.55;36.83;;;8.20;99.90;;;;;;5125053;28;20097;-71
2022/10/17 05:39:58;;;;;;;58.63;36.15;;;8.30;99.90;;;;;;5133822;28;20035;-69
2022/10/17 05:42:26;;;;;;;73.18;38.45;;;8.40;99.90;;;;;;5127358;28;20074;-70
2022/10/17 05:44:54;;;;;;;70.90;39.45;;;8.50;99.90;;;;;;5132471;28;20035;-69
2022/10/17 05:47:21;;;;;;;73.32;37.80;;;8.60;99.90;;;;;;5132523;28;20509;-69
2022/10/17 05:49:50;;;;;;;70.03;43.00;;;8.70;99.90;;;;;;5132726;28;20039;-69
2022/10/17 05:52:18;;;;;;;67.78;40.13;;;8.80;99.90;;;;;;5132326;28;20047;-69
2022/10/17 05:55:00;;;;;;;54.45;36.55;;;8.90;99.90;;;;;;5133185;28;20125;-69
2022/10/17 05:57:28;;;;;;;80.80;42.65;;;9.00;99.90;;;;;;5132607;28;20501;-69
2022/10/17 05:59:56;;;;;;;59.38;39.10;;;9.10;99.90;;;;;;5132838;28;20126;-69
2022/10/17 06:02:24;;;;;;;57.10;38.60;;;9.10;99.90;;;;;;5133211;28;20134;-73
2022/10/17 06:04:52;;;;;;;52.67;35.63;;;9.10;99.90;;;;;;5124582;27;20410;-69
2022/10/17 06:07:23;;;;;;;54.75;36.75;;;9.20;99.90;;;;;;5115879;28;20458;-69
2022/10/17 06:09:50;;;;;;;53.58;34.83;;;9.20;99.90;;;;;;5131705;27;20151;-69
2022/10/17 06:12:18;;;;;;;52.92;36.45;;;9.20;99.90;;;;;;5136474;27;20431;-69
2022/10/17 06:14:46;;;;;;;55.35;36.47;;;9.30;99.90;;;;;;5136275;27;20477;-70
2022/10/17 06:17:14;;;;;;;53.30;35.25;;;9.30;99.90;;;;;;5135878;27;20141;-69
2022/10/17 06:19:43;;;;;;;55.92;35.60;;;9.50;99.90;;;;;;5136108;27;20073;-69
2022/10/17 06:22:12;;;;;;;54.47;33.95;;;9.70;99.90;;;;;;5136491;27;20051;-69
2022/10/17 06:24:41;;;;;;;57.92;33.10;;;9.90;99.90;;;;;;5138427;27;20112;-69
2022/10/17 06:27:08;;;;;;;51.72;31.65;;;10.10;99.90;;;;;;5135032;27;20490;-70
2022/10/17 06:29:36;;;;;;;50.00;31.52;;;10.20;99.90;;;;;;5134679;27;20039;-70
2022/10/17 06:32:04;;;;;;;56.90;34.97;;;10.40;99.90;;;;;;5133832;27;20505;-69
2022/10/17 06:34:32;;;;;;;45.05;31.10;;;10.60;99.90;;;;;;5134043;27;20046;-71
2022/10/17 06:37:00;;;;;;;50.40;31.17;;;10.80;99.90;;;;;;5139098;27;20048;-70
2022/10/17 06:39:32;;;;;;;51.50;31.55;;;11.00;99.90;;;;;;5143935;27;20506;-71
2022/10/17 06:42:07;;;;;;;51.13;33.80;;;11.20;99.90;;;;;;5148366;27;20520;-70
2022/10/17 06:44:57;;;;;;;49.00;32.95;;;11.50;99.90;;;;;;5140678;27;20047;-69
2022/10/17 06:47:57;;;;;;;52.03;34.08;;;11.70;99.90;;;;;;5115619;28;20402;-70
2022/10/17 06:50:40;;;;;;;51.63;33.05;;;11.80;99.90;;;;;;5115097;28;20402;-69
2022/10/17 06:53:18;;;;;;;45.88;33.13;;;11.80;99.90;;;;;;5135357;27;20089;-70
2022/10/17 06:56:06;;;;;;;48.63;33.00;;;11.80;99.90;;;;;;5137246;27;20058;-69
2022/10/17 06:58:45;;;;;;;53.58;32.83;;;12.00;99.90;;;;;;5135459;27;20095;-69
2022/10/17 07:01:34;;;;;;;53.22;34.17;;;12.10;99.90;;;;;;5135191;27;20035;-68
2022/10/17 07:04:04;;;;;;;50.40;32.25;;;12.30;99.90;;;;;;5132248;27;20197;-69
2022/10/17 07:06:32;;;;;;;54.13;32.30;;;12.50;99.90;;;;;;5114880;28;20142;-69
2022/10/17 07:09:05;;;;;;;44.20;29.85;;;12.60;99.90;;;;;;5123211;27;20039;-70
2022/10/17 07:11:37;;;;;;;47.30;29.80;;;12.70;99.90;;;;;;5124269;27;20058;-70
2022/10/17 07:14:05;;;;;;;45.90;31.65;;;12.80;99.90;;;;;;5115735;28;20111;-69
2022/10/17 07:16:34;;;;;;;43.38;29.58;;;13.00;99.90;;;;;;5114424;28;20047;-69
2022/10/17 07:19:08;;;;;;;44.58;29.58;;;13.20;99.90;;;;;;5114598;28;20138;-69
2022/10/17 07:21:38;;;;;;;53.05;28.40;;;13.40;99.90;;;;;;5114331;28;20051;-69
2022/10/17 07:24:06;;;;;;;47.65;29.60;;;13.70;99.90;;;;;;5114201;28;20130;-69
2022/10/17 07:26:34;;;;;;;38.22;26.77;;;13.90;99.90;;;;;;5116334;28;20044;-69
2022/10/17 07:29:05;;;;;;;44.65;31.38;;;14.20;99.90;;;;;;5116442;28;20502;-69
2022/10/17 07:31:39;;;;;;;48.45;35.25;;;14.50;99.90;;;;;;5118278;28;20164;-71
2022/10/17 07:34:07;;;;;;;48.00;35.88;;;14.70;99.90;;;;;;5113756;28;20047;-71
2022/10/17 07:36:34;;;;;;;47.03;32.92;;;15.00;99.90;;;;;;5134210;27;20575;-72
2022/10/17 07:39:04;;;;;;;43.58;28.83;;;15.10;99.90;;;;;;5135245;27;20544;-72
2022/10/17 07:41:33;;;;;;;42.33;27.52;;;15.00;99.90;;;;;;5134366;27;20050;-71
2022/10/17 07:44:00;;;;;;;47.15;30.08;;;15.10;99.90;;;;;;5134424;27;20132;-73
2022/10/17 07:46:36;;;;;;;36.92;27.42;;;15.10;99.90;;;;;;5134389;27;20042;-71
2022/10/17 07:49:03;;;;;;;49.30;30.10;;;15.20;99.90;;;;;;5134564;27;20557;-71
2022/10/17 07:51:30;;;;;;;50.20;33.53;;;15.40;99.90;;;;;;5134311;27;20108;-72
2022/10/17 07:53:58;;;;;;;41.35;29.67;;;15.50;99.90;;;;;;5135246;27;20050;-73
2022/10/17 07:56:25;;;;;;;42.17;28.65;;;15.80;99.90;;;;;;5134292;27;20070;-71
2022/10/17 07:58:53;;;;;;;52.45;31.70;;;16.00;99.90;;;;;;5135628;27;20092;-71
2022/10/17 08:01:20;;;;;;;43.25;30.67;;;16.10;99.90;;;;;;5133867;27;20035;-72
2022/10/17 08:03:49;;;;;;;54.50;31.15;;;16.40;99.90;;;;;;5134970;27;20088;-72
2022/10/17 08:06:16;;;;;;;38.55;27.85;;;16.50;99.90;;;;;;5135382;27;20055;-72
2022/10/17 08:08:44;;;;;;;47.70;31.17;;;16.50;99.90;;;;;;5135443;27;20047;-72
2022/10/17 08:11:13;;;;;;;35.03;25.35;;;16.50;99.90;;;;;;5135428;27;20031;-72
2022/10/17 08:13:41;;;;;;;39.33;24.73;;;16.60;99.90;;;;;;5134052;27;20043;-73
2022/10/17 08:16:10;;;;;;;36.22;25.65;;;16.60;99.90;;;;;;5134979;27;20054;-73
2022/10/17 08:18:40;;;;;;;34.55;23.77;;;16.60;99.90;;;;;;5136923;27;20421;-74
2022/10/17 08:21:11;;;;;;;35.03;25.98;;;16.70;99.90;;;;;;5136786;27;20088;-72
2022/10/17 08:23:39;;;;;;;38.15;27.30;;;16.70;99.90;;;;;;5135559;27;20119;-71
2022/10/17 08:26:09;;;;;;;35.92;25.33;;;16.70;99.90;;;;;;5134005;27;20047;-72
2022/10/17 08:28:38;;;;;;;43.53;27.58;;;16.80;99.90;;;;;;5134273;27;20100;-72
2022/10/17 08:31:06;;;;;;;41.03;26.52;;;16.90;99.90;;;;;;5134733;27;20039;-72
2022/10/17 08:33:33;;;;;;;53.70;28.33;;;17.00;99.90;;;;;;5134688;27;20039;-72
2022/10/17 08:36:01;;;;;;;36.88;26.88;;;17.20;99.90;;;;;;5134576;27;20039;-72
2022/10/17 08:38:31;;;;;;;41.00;25.45;;;17.30;99.90;;;;;;5134686;27;20039;-73
2022/10/17 08:41:03;;;;;;;38.03;25.85;;;17.40;99.90;;;;;;5134244;27;20094;-73
2022/10/17 08:43:49;;;;;;;36.42;24.27;;;17.40;99.90;;;;;;5133221;27;20520;-70
2022/10/17 08:46:17;;;;;;;195.10;47.10;;;17.50;99.90;;;;;;5134568;27;20042;-72
2022/10/17 08:48:48;;;;;;;110.35;36.38;;;17.50;99.90;;;;;;5134333;27;20039;-73
2022/10/17 08:51:19;;;;;;;32.17;23.00;;;17.50;99.90;;;;;;5134629;27;20049;-72
2022/10/17 08:53:53;;;;;;;33.45;23.83;;;17.50;99.90;;;;;;5132737;27;20051;-73
2022/10/17 08:56:23;;;;;;;37.00;23.38;;;17.60;99.90;;;;;;5134819;27;20051;-72
2022/10/17 08:58:51;;;;;;;38.75;24.70;;;17.70;99.90;;;;;;5134420;27;20410;-71
2022/10/17 09:01:32;;;;;;;35.35;25.23;;;17.70;99.90;;;;;;5134805;27;20031;-73
2022/10/17 09:04:29;;;;;;;36.47;24.67;;;17.80;99.90;;;;;;5134252;27;20418;-72
2022/10/17 09:07:02;;;;;;;36.00;25.20;;;17.90;99.90;;;;;;5124465;27;20122;-72
2022/10/17 09:09:47;;;;;;;35.15;25.10;;;18.00;99.90;;;;;;5134865;27;20042;-73
2022/10/17 09:12:18;;;;;;;38.47;24.02;;;18.00;99.90;;;;;;5134666;27;20470;-72
2022/10/17 09:15:26;;;;;;;56.00;26.42;;;18.20;99.90;;;;;;5134344;27;20049;-72
2022/10/17 09:17:57;;;;;;;35.85;23.80;;;18.20;99.90;;;;;;5118733;28;20074;-72
2022/10/17 09:20:28;;;;;;;64.53;35.65;;;18.30;99.90;;;;;;5134325;28;20039;-73
2022/10/17 09:22:58;;;;;;;53.05;37.42;;;18.40;99.90;;;;;;5132948;28;20474;-73
2022/10/17 09:25:28;;;;;;;36.80;26.85;;;18.40;99.90;;;;;;5135047;28;20390;-72
2022/10/17 09:28:02;;;;;;;33.63;25.55;;;18.50;99.90;;;;;;5135045;28;20490;-73
2022/10/17 09:30:36;;;;;;;35.38;26.33;;;18.60;99.90;;;;;;5133152;28;20099;-73
2022/10/17 09:33:10;;;;;;;99.65;30.15;;;18.70;99.90;;;;;;5133937;28;20046;-72
2022/10/17 09:35:40;;;;;;;33.92;22.20;;;18.80;99.90;;;;;;5134355;28;20039;-73
2022/10/17 09:38:12;;;;;;;33.92;23.13;;;18.90;99.90;;;;;;5133029;27;20081;-71
2022/10/17 09:40:41;;;;;;;37.08;22.30;;;19.00;99.90;;;;;;5137816;27;20462;-73
2022/10/17 09:43:13;;;;;;;35.42;22.55;;;19.10;99.90;;;;;;5138861;27;20051;-72
2022/10/17 09:45:46;;;;;;;30.15;22.90;;;19.10;99.90;;;;;;5141480;27;20046;-72
2022/10/17 09:48:23;;;;;;;44.17;26.70;;;19.20;99.90;;;;;;5140252;27;20448;-73
2022/10/17 09:50:50;;;;;;;45.85;24.40;;;19.20;99.90;;;;;;5139852;27;20076;-71
2022/10/17 09:53:23;;;;;;;31.35;21.73;;;19.30;99.90;;;;;;5139006;27;20039;-73
2022/10/17 09:55:55;;;;;;;31.05;22.10;;;19.40;99.90;;;;;;5140248;27;20047;-71
2022/10/17 09:58:23;;;;;;;32.97;21.75;;;19.50;99.90;;;;;;5138052;27;20097;-72
2022/10/17 10:00:51;;;;;;;27.73;19.45;;;19.60;99.90;;;;;;5136772;27;20039;-72
2022/10/17 10:03:20;;;;;;;32.30;23.20;;;19.60;99.90;;;;;;5138188;27;20411;-72
2022/10/17 10:06:03;;;;;;;21.80;17.13;;;19.70;99.90;;;;;;5137863;27;20047;-72
2022/10/17 10:08:33;;;;;;;24.20;17.15;;;19.80;99.90;;;;;;5138128;27;20406;-72
2022/10/17 10:11:05;;;;;;;23.02;15.85;;;19.80;99.90;;;;;;5137702;27;20031;-73
2022/10/17 10:13:34;;;;;;;26.25;15.77;;;19.90;99.90;;;;;;5136655;27;20051;-72
2022/10/17 10:16:18;;;;;;;29.08;16.95;;;19.90;99.90;;;;;;5138115;27;20039;-72
2022/10/17 10:18:46;;;;;;;24.52;17.30;;;20.00;99.90;;;;;;5136326;27;20124;-73
2022/10/17 10:21:16;;;;;;;23.60;18.63;;;20.10;99.90;;;;;;5137777;27;20447;-73
2022/10/17 10:23:45;;;;;;;20.17;14.93;;;20.20;99.90;;;;;;5137338;27;20039;-73
2022/10/17 10:26:23;;;;;;;24.20;16.90;;;20.20;99.90;;;;;;5138014;27;20106;-73
2022/10/17 10:28:57;;;;;;;26.38;16.33;;;20.30;99.90;;;;;;5137692;27;20422;-72
2022/10/17 10:31:31;;;;;;;20.85;16.63;;;20.50;99.90;;;;;;5138124;27;20100;-73
2022/10/17 10:34:07;;;;;;;25.10;16.48;;;20.60;99.90;;;;;;5136967;27;20569;-73
2022/10/17 10:36:56;;;;;;;24.85;16.63;;;20.70;99.90;;;;;;5139866;27;20497;-73
2022/10/17 10:39:36;;;;;;;26.02;16.75;;;20.70;99.90;;;;;;5140737;27;20096;-73
2022/10/17 10:42:08;;;;;;;23.60;16.80;;;20.80;99.90;;;;;;5138624;27;20039;-71
2022/10/17 10:44:39;;;;;;;23.95;15.85;;;20.80;99.90;;;;;;5137544;27;20050;-73
2022/10/17 10:47:19;;;;;;;25.20;18.25;;;20.80;99.90;;;;;;5137695;27;20035;-73
2022/10/17 10:49:48;;;;;;;21.40;16.25;;;20.80;99.90;;;;;;5136687;27;20043;-73
2022/10/17 10:52:34;;;;;;;22.15;16.15;;;20.80;99.90;;;;;;5136994;27;20091;-72
2022/10/17 10:55:14;;;;;;;26.75;15.90;;;20.80;99.90;;;;;;5138930;27;20047;-73
2022/10/17 10:57:45;;;;;;;19.98;14.85;;;21.00;99.90;;;;;;5143988;27;20063;-73
2022/10/17 11:00:16;;;;;;;24.55;14.52;;;21.10;99.90;;;;;;5141635;27;20049;-73
2022/10/17 11:02:52;;;;;;;27.40;17.55;;;21.10;99.90;;;;;;5140819;27;20054;-72
2022/10/17 11:05:26;;;;;;;30.02;16.35;;;21.10;99.90;;;;;;5143689;27;20491;-74
2022/10/17 11:07:59;;;;;;;19.92;14.68;;;21.10;99.90;;;;;;5143826;27;20051;-72
2022/10/17 11:10:34;;;;;;;22.42;15.48;;;21.20;99.90;;;;;;5141023;27;20396;-74
2022/10/17 11:13:09;;;;;;;20.43;14.67;;;21.20;99.90;;;;;;5138320;27;20047;-73
2022/10/17 11:15:42;;;;;;;18.27;13.80;;;21.30;99.90;;;;;;5140465;27;20339;-72
2022/10/17 11:18:19;;;;;;;20.17;14.20;;;21.40;99.90;;;;;;5141779;27;20119;-73
2022/10/17 11:20:54;;;;;;;19.23;14.57;;;21.50;99.90;;;;;;5140525;27;20485;-72
2022/10/17 11:23:26;;;;;;;18.88;13.50;;;21.50;99.90;;;;;;5138445;27;20053;-71
2022/10/17 11:25:56;;;;;;;22.83;14.88;;;21.60;99.90;;;;;;5138800;27;20096;-73
2022/10/17 11:28:26;;;;;;;33.35;17.08;;;21.70;99.90;;;;;;5137643;27;20111;-73
2022/10/17 11:30:59;;;;;;;18.38;13.95;;;21.70;99.90;;;;;;5140196;27;20043;-73
2022/10/17 11:33:39;;;;;;;16.30;12.75;;;21.70;99.90;;;;;;5138571;27;20050;-73
2022/10/17 11:36:09;;;;;;;20.50;12.65;;;21.70;99.90;;;;;;5137594;27;20383;-72
2022/10/17 11:38:43;;;;;;;16.52;12.75;;;21.80;99.90;;;;;;5137911;27;20046;-73
2022/10/17 11:41:16;;;;;;;19.45;13.95;;;21.80;99.90;;;;;;5137614;27;20087;-73
2022/10/17 11:43:51;;;;;;;17.23;12.30;;;21.80;99.90;;;;;;5133314;27;20063;-73
2022/10/17 11:46:22;;;;;;;16.33;12.43;;;21.90;99.90;;;;;;5133312;27;20045;-73
2022/10/17 11:48:59;;;;;;;35.85;14.32;;;22.00;99.90;;;;;;5124876;27;20047;-74
2022/10/17 11:51:27;;;;;;;16.70;13.07;;;22.00;99.90;;;;;;5138599;27;20390;-71
2022/10/17 11:53:59;;;;;;;18.13;11.88;;;22.10;99.90;;;;;;5134022;27;20043;-73
2022/10/17 11:56:32;;;;;;;14.23;9.27;;;22.10;99.90;;;;;;5131831;27;20039;-72
2022/10/17 11:59:15;;;;;;;17.55;10.32;;;22.10;99.90;;;;;;5128903;27;20494;-72
2022/10/17 12:01:48;;;;;;;23.27;13.32;;;22.40;99.90;;;;;;5126691;27;20031;-72
2022/10/17 12:04:26;;;;;;;15.45;10.45;;;22.30;99.90;;;;;;5121130;27;20055;-71
2022/10/17 12:07:09;;;;;;;45.90;13.82;;;22.30;99.90;;;;;;5130927;27;20039;-73
2022/10/17 12:09:45;;;;;;;16.15;9.77;;;22.30;99.90;;;;;;5130337;27;20042;-72
2022/10/17 12:12:25;;;;;;;16.73;9.70;;;22.20;99.90;;;;;;5130883;27;20398;-71
2022/10/17 12:14:54;;;;;;;17.23;9.65;;;22.20;99.90;;;;;;5115495;27;20132;-72
2022/10/17 12:17:31;;;;;;;15.20;10.13;;;22.20;99.90;;;;;;5115067;28;20048;-71
2022/10/17 12:20:26;;;;;;;13.88;9.65;;;22.20;99.90;;;;;;5116004;27;20043;-72
2022/10/17 12:22:55;;;;;;;12.80;9.32;;;22.20;99.90;;;;;;5115198;28;20067;-70
2022/10/17 12:25:28;;;;;;;16.42;10.38;;;22.20;99.90;;;;;;5114261;27;20134;-72
2022/10/17 12:28:15;;;;;;;12.35;10.00;;;22.20;99.90;;;;;;5114596;28;20043;-71
2022/10/17 12:30:56;;;;;;;14.70;9.82;;;22.10;99.90;;;;;;5115457;28;20389;-72
2022/10/17 12:33:34;;;;;;;16.35;10.88;;;22.10;99.90;;;;;;5126189;27;20047;-73
2022/10/17 12:36:44;;;;;;;13.68;9.57;;;22.20;99.90;;;;;;5114445;28;20069;-73
2022/10/17 12:39:51;;;;;;;11.07;9.55;;;22.10;99.90;;;;;;5114572;28;20500;-73
2022/10/17 12:42:33;;;;;;;13.73;10.02;;;22.10;99.90;;;;;;5115050;27;20474;-72
2022/10/17 12:45:00;;;;;;;19.05;12.45;;;22.10;99.90;;;;;;5125112;27;20069;-71
2022/10/17 12:47:38;;;;;;;18.92;14.13;;;22.10;99.90;;;;;;5126993;27;20069;-73
2022/10/17 12:50:49;;;;;;;12.73;10.23;;;22.10;99.90;;;;;;5124164;27;20123;-73
2022/10/17 12:53:20;;;;;;;15.57;9.32;;;22.10;99.90;;;;;;5130748;27;20452;-73
2022/10/17 12:55:50;;;;;;;16.05;9.27;;;22.00;99.90;;;;;;5133038;27;20071;-72
2022/10/17 12:58:18;;;;;;;13.65;10.10;;;22.10;99.90;;;;;;5114565;28;20043;-71
2022/10/17 13:00:51;;;;;;;17.75;12.32;;;22.10;99.90;;;;;;5119937;27;20054;-71